Terminal Aerodrome Forecast
Issued by NWS

Home | Current Version | Previous Version | Text Only | Print | Product List | Glossary On
Versions: 1 2 3 4 5 6 7 8 9 10 11 12
000
FTUS42 TJSJ 231700
TAFJMZ
TAF
TJMZ 231739Z 2318/2418 34007KT P6SM VCTS FEW022CB BKN040
     FM232300 07004KT P6SM SCT030 SCT070
     FM240300 00000KT P6SM SKC
     FM241450 32009KT P6SM SCT025 SCT040
      AMD NOT SKED 2323/2411=

USA.gov is the U.S. government's official web portal to all federal, state and local government web resources and services.